Aérodrome :
LOGIN :

S'inscrire | Disclaimer

   EN    FR    IT 

 










Légende :    VFR   VFR Marginal   IFR   IFR Intensif   IFR Très Intensif
Visi : 
Plafond : 
>= 8 km
>= 3000ft
5 à 8 km
1000 à 3000 ft
1500m à 5 km
500 à 1000 ft
800 à 1500m
200 à 500 ft
< 800m
< 200 ft
Symboles :   Orages  Brouillard  Fortes neiges  Fortes précipitations  Vent > 20 kt
SIGMETs :   Divers  Orages  Givrage  Turbulence  Onde Orograph.  Cendres Volcan.







- Altitude de l'aérodrome : 1682 ft
- Code IATA : VIT


LEVT - Vitoria Gasteiz

DERNIER METAR :
  • 230130Z 00000KT 9999 FEW050 10/10 Q1019

METARs EXPIRÉS :
  • 230100Z 05003KT 9999 FEW050 10/10 Q1020
  • 230030Z 04004KT 9999 FEW050 10/09 Q1020
  • 230000Z 00000KT 9999 FEW050 12/11 Q1020
  • 222330Z VRB01KT 9999 FEW050 11/11 Q1019
  • 222300Z 18001KT 9999 FEW050 11/11 Q1019

TAF TAF LEVT
Valide du 23 à 00h jusqu'au 24 à 00h UTC


222300Z 2300/2324 VRB04KT 9999 FEW040 TX22/2315Z TN09/2305Z
PROB40
TEMPO 2302/2307 0350 BCFG VV001
TEMPO 2311/2320 03011KT
Pas de NOTAMs connus pour ce terrain.
1 SIGMET publié pour la FIR Madrid (LECM) :
 
Orages noyés dans la masse
LECM SIGMET 16 VALID 230100/230500 LEVA
LECM MADRID FIR/UIR EMBD TS OBS AT 2358Z WI N3559 W00640 - N3942 W00609 - N3944 W00245 - N36 W00317 - N3559 W00640 TOP FL360 MOV NNE 20KT NC=



MET'MAP, la Météo Aéronautique d'un coup d'oeil ! - Copyright ORBIFLY Décembre 2007 - Disclaimer

ORBIFLY MET'MAP TEAM :

Programmation & Développement : Alexandra Zaïnal
Conception & Développement : Baudouin d'Aumeries
Co-Programmation & Développement : Marc-Olivier Méhu
Soutien technique & logistique : Manuel Goepfert

Contact : metmap@orbifly.com




SOURCES & CREDITS :

   NOAA